createdAt,value
2018-07-31T00:01:18.643Z,4.00
2018-07-31T00:03:49.193Z,3.73
2018-07-31T00:06:24.981Z,3.83
2018-07-31T00:08:56.729Z,4.00
2018-07-31T00:11:27.233Z,3.93
2018-07-31T00:13:57.418Z,3.30
2018-07-31T00:16:28.956Z,3.77
2018-07-31T00:18:59.724Z,4.00
2018-07-31T00:21:30.265Z,3.90
2018-07-31T00:24:01.157Z,3.50
2018-07-31T00:26:31.755Z,3.40
2018-07-31T00:29:02.395Z,3.47
2018-07-31T00:31:33.057Z,3.57
2018-07-31T00:34:03.530Z,3.80
2018-07-31T00:36:34.895Z,3.50
2018-07-31T00:39:07.693Z,3.97
2018-07-31T00:41:38.394Z,4.30
2018-07-31T00:44:08.909Z,3.33
2018-07-31T00:46:39.504Z,4.03
2018-07-31T00:49:10.090Z,2.87
2018-07-31T00:51:40.313Z,3.67
2018-07-31T00:54:10.858Z,3.60
2018-07-31T00:56:41.660Z,4.00
2018-07-31T00:59:12.093Z,3.20
2018-07-31T01:01:43.000Z,4.93
2018-07-31T01:04:13.560Z,4.30
2018-07-31T01:06:44.882Z,3.87
2018-07-31T01:09:15.071Z,4.20
2018-07-31T01:11:45.598Z,4.27
2018-07-31T01:14:16.297Z,3.93
2018-07-31T01:16:47.116Z,3.50
2018-07-31T01:19:17.805Z,3.40
2018-07-31T01:21:48.421Z,3.77
2018-07-31T01:24:19.039Z,3.10
2018-07-31T01:26:49.184Z,4.30
2018-07-31T01:29:19.329Z,3.50
2018-07-31T01:31:49.887Z,3.47
2018-07-31T01:34:20.749Z,3.27
2018-07-31T01:36:51.288Z,3.40
2018-07-31T01:39:21.966Z,3.43
2018-07-31T01:41:52.796Z,3.10
2018-07-31T01:44:23.896Z,3.30
2018-07-31T01:46:54.477Z,3.93
2018-07-31T01:49:25.032Z,3.50
2018-07-31T01:51:55.610Z,3.60
2018-07-31T01:54:26.201Z,4.30
2018-07-31T01:56:56.725Z,4.50
2018-07-31T01:59:27.277Z,4.17
2018-07-31T02:01:57.997Z,3.93
2018-07-31T02:04:28.567Z,3.80
2018-07-31T02:06:59.599Z,3.00
2018-07-31T02:09:30.342Z,3.70
2018-07-31T02:12:00.998Z,3.30
2018-07-31T02:14:31.527Z,3.73
2018-07-31T02:17:02.179Z,3.20
2018-07-31T02:19:33.432Z,3.60
2018-07-31T02:22:03.819Z,3.60
2018-07-31T02:24:34.638Z,3.90
2018-07-31T02:27:04.905Z,5.00
2018-07-31T02:29:40.639Z,3.80
2018-07-31T02:32:11.402Z,4.17
2018-07-31T02:34:42.121Z,3.80
2018-07-31T02:37:12.665Z,3.67
2018-07-31T02:39:43.213Z,3.87
2018-07-31T02:42:13.850Z,3.73
2018-07-31T02:44:44.460Z,3.77
2018-07-31T02:47:15.081Z,2.97
2018-07-31T02:49:45.634Z,3.70
2018-07-31T02:52:16.266Z,3.77
2018-07-31T02:54:46.595Z,3.23
2018-07-31T02:57:16.935Z,3.53
2018-07-31T02:59:47.464Z,3.60
2018-07-31T03:02:18.024Z,2.83
2018-07-31T03:04:48.760Z,3.67
2018-07-31T03:07:19.307Z,3.30
2018-07-31T03:09:49.570Z,3.43
2018-07-31T03:12:20.407Z,2.93
2018-07-31T03:14:51.024Z,3.70
2018-07-31T03:17:21.621Z,3.40
2018-07-31T03:19:52.100Z,3.10
2018-07-31T03:22:22.695Z,3.57
2018-07-31T03:24:53.729Z,2.93
2018-07-31T03:27:24.396Z,3.90
2018-07-31T03:29:55.127Z,3.73
2018-07-31T03:32:25.871Z,5.53
2018-07-31T03:34:57.144Z,3.70
2018-07-31T03:37:28.024Z,4.20
2018-07-31T03:39:58.838Z,3.30
2018-07-31T03:42:29.414Z,3.60
2018-07-31T03:45:00.261Z,3.67
2018-07-31T03:47:30.979Z,3.30
2018-07-31T03:50:01.699Z,3.27
2018-07-31T03:52:32.318Z,3.50
2018-07-31T03:55:03.092Z,3.60
2018-07-31T03:57:33.621Z,2.80
2018-07-31T04:00:04.358Z,3.30
2018-07-31T04:02:35.069Z,3.37
2018-07-31T04:05:05.714Z,3.17
2018-07-31T04:07:36.358Z,3.20
2018-07-31T04:10:07.058Z,3.33
2018-07-31T04:12:37.720Z,4.20
2018-07-31T04:15:08.317Z,4.03
2018-07-31T04:17:38.587Z,3.53
2018-07-31T04:20:09.472Z,3.27
2018-07-31T04:22:40.137Z,3.87
2018-07-31T04:25:11.045Z,3.30
2018-07-31T04:27:41.994Z,3.70
2018-07-31T04:30:13.304Z,3.27
2018-07-31T04:32:44.505Z,2.80
2018-07-31T04:35:15.041Z,3.50
2018-07-31T04:37:45.571Z,3.40
2018-07-31T04:40:16.302Z,2.83
2018-07-31T04:42:46.556Z,3.10
2018-07-31T04:45:16.983Z,3.53
2018-07-31T04:47:47.668Z,4.33
2018-07-31T04:50:18.816Z,3.77
2018-07-31T04:52:49.418Z,3.20
2018-07-31T04:55:22.047Z,4.07
2018-07-31T04:57:52.644Z,4.30
2018-07-31T05:00:23.316Z,4.47
2018-07-31T05:02:54.047Z,3.50
2018-07-31T05:05:24.756Z,3.33
2018-07-31T05:07:55.991Z,3.80
2018-07-31T05:10:26.553Z,3.43
2018-07-31T05:12:56.749Z,3.50
2018-07-31T05:15:26.882Z,3.53
2018-07-31T05:17:57.321Z,3.40
2018-07-31T05:20:27.567Z,3.77
2018-07-31T05:22:57.992Z,3.30
2018-07-31T05:25:28.668Z,3.13
2018-07-31T05:27:59.239Z,3.27
2018-07-31T05:30:30.252Z,2.93
2018-07-31T05:33:01.727Z,3.50
2018-07-31T05:35:32.240Z,3.70
2018-07-31T05:38:02.960Z,3.40
2018-07-31T05:40:33.430Z,3.40
2018-07-31T05:43:04.016Z,2.73
2018-07-31T05:45:34.522Z,3.67
2018-07-31T05:48:05.575Z,3.23
2018-07-31T05:50:36.185Z,4.10
2018-07-31T05:53:06.895Z,3.50
2018-07-31T05:55:37.581Z,3.10
2018-07-31T05:58:08.230Z,2.73
2018-07-31T06:00:38.789Z,3.00
2018-07-31T06:03:09.189Z,3.10
2018-07-31T06:05:39.683Z,3.30
2018-07-31T06:08:10.369Z,2.60
2018-07-31T06:10:41.940Z,2.93
2018-07-31T06:13:12.454Z,2.33
2018-07-31T06:15:43.276Z,2.00
2018-07-31T06:18:13.842Z,2.40
2018-07-31T06:20:44.869Z,2.40
2018-07-31T06:23:15.324Z,2.37
2018-07-31T06:25:45.821Z,2.37
2018-07-31T06:28:16.305Z,1.97
2018-07-31T06:30:47.010Z,2.37
2018-07-31T06:33:17.708Z,2.27
2018-07-31T06:35:48.384Z,1.80
2018-07-31T06:38:18.928Z,2.00
2018-07-31T06:40:49.912Z,2.47
2018-07-31T06:43:20.652Z,2.50
2018-07-31T06:45:51.322Z,2.70
2018-07-31T06:48:22.134Z,2.33
2018-07-31T06:50:52.746Z,2.57
2018-07-31T06:53:23.444Z,2.23
2018-07-31T06:55:54.044Z,2.87
2018-07-31T06:58:24.820Z,2.13
2018-07-31T07:00:55.549Z,2.10
2018-07-31T07:03:26.529Z,2.23
2018-07-31T07:05:57.111Z,2.27
2018-07-31T07:08:28.084Z,2.23
2018-07-31T07:10:58.638Z,2.00
2018-07-31T07:13:29.344Z,1.67
2018-07-31T07:15:59.965Z,2.17
2018-07-31T07:18:31.344Z,2.23
2018-07-31T07:21:02.063Z,2.10
2018-07-31T07:23:32.815Z,2.43
2018-07-31T07:26:03.437Z,2.20
2018-07-31T07:28:34.147Z,2.73
2018-07-31T07:31:04.422Z,2.40
2018-07-31T07:33:34.952Z,2.43
2018-07-31T07:36:05.557Z,2.40
2018-07-31T07:38:36.463Z,2.10
2018-07-31T07:41:07.142Z,2.00
2018-07-31T07:43:37.946Z,1.95
2018-07-31T07:46:08.598Z,2.17
2018-07-31T07:48:39.148Z,1.98
2018-07-31T07:51:09.837Z,2.67
2018-07-31T07:53:40.420Z,1.90
2018-07-31T07:56:11.034Z,2.55
2018-07-31T07:58:41.605Z,1.50
2018-07-31T08:01:12.613Z,1.70
2018-07-31T08:03:43.341Z,2.47
2018-07-31T08:06:13.832Z,2.10
2018-07-31T08:08:44.487Z,2.33
2018-07-31T08:11:15.207Z,1.95
2018-07-31T08:13:45.889Z,2.40
2018-07-31T08:16:16.782Z,2.60
2018-07-31T08:18:47.597Z,1.87
2018-07-31T08:21:18.297Z,2.57
2018-07-31T08:23:49.039Z,2.90
2018-07-31T08:26:19.621Z,2.60
2018-07-31T08:28:50.353Z,2.73
2018-07-31T08:31:21.048Z,2.80
2018-07-31T08:33:51.808Z,3.10
2018-07-31T08:36:22.435Z,2.77
2018-07-31T08:38:53.041Z,2.05
2018-07-31T08:41:23.628Z,2.15
2018-07-31T08:43:54.350Z,2.00
2018-07-31T08:46:25.278Z,2.02
2018-07-31T08:48:55.766Z,1.98
2018-07-31T08:51:26.530Z,2.00
2018-07-31T08:53:57.073Z,2.30
2018-07-31T08:56:27.800Z,2.20
2018-07-31T08:58:58.544Z,1.37
2018-07-31T09:01:29.359Z,1.73
2018-07-31T09:03:59.839Z,1.80
2018-07-31T09:06:30.419Z,2.20
2018-07-31T09:09:01.076Z,1.70
2018-07-31T09:11:31.798Z,2.00
2018-07-31T09:14:02.430Z,1.92
2018-07-31T09:16:33.168Z,1.67
2018-07-31T09:19:04.045Z,1.27
2018-07-31T09:21:34.592Z,1.60
2018-07-31T09:24:05.149Z,1.87
2018-07-31T09:26:35.804Z,1.72
2018-07-31T09:29:06.392Z,2.30
2018-07-31T09:31:36.953Z,1.82
2018-07-31T09:34:07.730Z,1.90
2018-07-31T09:36:38.369Z,2.08
2018-07-31T09:39:11.560Z,1.90
2018-07-31T09:41:42.169Z,1.70
2018-07-31T09:44:13.361Z,1.85
2018-07-31T09:46:44.053Z,1.95
2018-07-31T09:49:14.508Z,2.22
2018-07-31T09:51:45.259Z,1.70
2018-07-31T09:54:15.918Z,1.60
2018-07-31T09:56:46.601Z,2.10
2018-07-31T09:59:17.273Z,1.77
2018-07-31T10:01:47.907Z,1.40
2018-07-31T10:04:18.558Z,1.62
2018-07-31T10:06:49.185Z,1.98
2018-07-31T10:09:19.835Z,1.60
2018-07-31T10:11:50.495Z,1.90
2018-07-31T10:14:20.982Z,1.80
2018-07-31T10:16:51.603Z,1.90
2018-07-31T10:19:22.439Z,2.00
2018-07-31T10:21:52.937Z,1.65
2018-07-31T10:24:23.610Z,1.83
2018-07-31T10:26:54.102Z,1.67
2018-07-31T10:29:25.367Z,1.42
2018-07-31T10:31:56.510Z,2.40
2018-07-31T10:34:27.255Z,1.87
2018-07-31T10:36:57.990Z,1.77
2018-07-31T10:39:28.737Z,2.50
2018-07-31T10:41:59.507Z,2.07
2018-07-31T10:44:30.198Z,1.93
2018-07-31T10:47:00.816Z,2.37
2018-07-31T10:49:31.409Z,2.23
2018-07-31T10:52:01.861Z,1.97
2018-07-31T10:54:32.593Z,2.20
2018-07-31T10:57:03.333Z,2.57
2018-07-31T10:59:33.918Z,1.87
2018-07-31T11:02:04.510Z,1.95
2018-07-31T11:04:35.272Z,1.50
2018-07-31T11:07:06.793Z,1.67
2018-07-31T11:09:37.272Z,1.60
2018-07-31T11:12:08.141Z,1.82
2018-07-31T11:14:38.816Z,1.85
2018-07-31T11:17:09.501Z,1.90
2018-07-31T11:19:40.180Z,2.58
2018-07-31T11:22:10.939Z,1.52
2018-07-31T11:24:41.858Z,1.77
2018-07-31T11:27:12.318Z,1.93
2018-07-31T11:29:43.125Z,1.90
2018-07-31T11:32:13.700Z,1.93
2018-07-31T11:34:44.773Z,1.90
2018-07-31T11:37:15.369Z,2.43
2018-07-31T11:39:46.031Z,2.47
2018-07-31T11:42:16.744Z,2.20
2018-07-31T11:44:47.313Z,2.40
2018-07-31T11:47:17.802Z,2.80
2018-07-31T11:49:48.465Z,2.53
2018-07-31T11:52:19.174Z,2.30
2018-07-31T11:54:49.830Z,2.77
2018-07-31T11:57:20.495Z,2.63
2018-07-31T11:59:51.172Z,3.10
2018-07-31T12:02:21.893Z,2.60
2018-07-31T12:04:52.459Z,2.60
2018-07-31T12:07:23.043Z,2.60
2018-07-31T12:09:53.821Z,2.73
2018-07-31T12:12:24.420Z,2.50
2018-07-31T12:14:55.297Z,2.40
2018-07-31T12:17:25.799Z,2.43
2018-07-31T12:19:56.339Z,2.70
2018-07-31T12:22:26.993Z,2.83
2018-07-31T12:24:57.697Z,2.67
2018-07-31T12:27:28.302Z,2.57
2018-07-31T12:29:58.786Z,2.57
2018-07-31T12:32:29.456Z,2.67
2018-07-31T12:35:00.071Z,2.77
2018-07-31T12:37:30.660Z,3.03
2018-07-31T12:40:01.394Z,2.30
2018-07-31T12:42:31.954Z,2.80
2018-07-31T12:45:02.662Z,2.87
2018-07-31T12:47:33.742Z,2.67
2018-07-31T12:50:04.935Z,2.60
2018-07-31T12:52:35.731Z,2.70
2018-07-31T12:55:06.787Z,2.67
2018-07-31T12:57:37.939Z,2.70
2018-07-31T13:00:08.777Z,2.77
2018-07-31T13:02:39.497Z,2.80
2018-07-31T13:05:10.873Z,3.00
2018-07-31T13:07:41.463Z,2.80
2018-07-31T13:10:12.073Z,2.73
2018-07-31T13:12:43.101Z,2.70
2018-07-31T13:15:14.171Z,2.70
2018-07-31T13:17:44.858Z,2.90
2018-07-31T13:20:15.641Z,2.60
2018-07-31T13:22:46.502Z,2.07
2018-07-31T13:25:17.077Z,3.50
2018-07-31T13:27:48.246Z,2.50
2018-07-31T13:30:18.866Z,2.57
2018-07-31T13:32:49.614Z,2.50
2018-07-31T13:35:20.279Z,2.23
2018-07-31T13:37:50.862Z,2.70
2018-07-31T13:40:21.367Z,2.43
2018-07-31T13:42:51.649Z,2.30
2018-07-31T13:45:22.058Z,2.17
2018-07-31T13:47:52.884Z,2.43
2018-07-31T13:50:23.556Z,2.20
2018-07-31T13:52:54.222Z,3.03
2018-07-31T13:55:24.991Z,2.10
2018-07-31T13:57:55.707Z,2.57
2018-07-31T14:00:26.753Z,2.00
2018-07-31T14:02:57.445Z,2.70
2018-07-31T14:05:28.136Z,1.93
2018-07-31T14:07:58.863Z,1.90
2018-07-31T14:10:29.523Z,1.90
2018-07-31T14:13:00.216Z,2.13
2018-07-31T14:15:30.776Z,2.27
2018-07-31T14:18:01.514Z,1.57
2018-07-31T14:20:32.498Z,2.40
2018-07-31T14:23:02.999Z,2.00
2018-07-31T14:25:33.625Z,1.50
2018-07-31T14:28:04.507Z,2.27
2018-07-31T14:30:35.196Z,2.03
2018-07-31T14:33:05.910Z,2.77
2018-07-31T14:35:36.591Z,2.23
2018-07-31T14:38:07.357Z,1.90
2018-07-31T14:40:38.018Z,1.60
2018-07-31T14:43:09.061Z,2.00
2018-07-31T14:45:39.761Z,2.10
2018-07-31T14:48:10.515Z,2.50
2018-07-31T14:50:41.216Z,1.50
2018-07-31T14:53:12.565Z,1.90
2018-07-31T14:55:43.231Z,1.80
2018-07-31T14:58:13.824Z,1.93
2018-07-31T15:00:44.439Z,1.80
2018-07-31T15:03:14.601Z,1.70
2018-07-31T15:05:45.130Z,1.93
2018-07-31T15:08:16.070Z,1.63
2018-07-31T15:10:46.695Z,1.80
2018-07-31T15:13:17.351Z,1.90
2018-07-31T15:15:47.938Z,1.60
2018-07-31T15:18:18.593Z,2.30
2018-07-31T15:20:49.240Z,1.70
2018-07-31T15:23:19.928Z,2.20
2018-07-31T15:25:50.579Z,1.67
2018-07-31T15:28:21.725Z,1.80
2018-07-31T15:30:52.472Z,1.87
2018-07-31T15:33:23.106Z,1.83
2018-07-31T15:35:53.807Z,1.87
2018-07-31T15:38:24.124Z,2.30
2018-07-31T15:40:54.665Z,1.50
2018-07-31T15:43:25.502Z,1.90
2018-07-31T15:45:55.984Z,1.83
2018-07-31T15:48:26.671Z,1.67
2018-07-31T15:50:57.807Z,2.17
2018-07-31T15:53:28.459Z,1.80
2018-07-31T15:55:59.142Z,2.47
2018-07-31T15:58:29.614Z,1.93
2018-07-31T16:01:00.269Z,1.60
2018-07-31T16:03:30.859Z,1.80
2018-07-31T16:06:01.403Z,3.17
2018-07-31T16:08:31.977Z,2.00
2018-07-31T16:11:02.644Z,2.40
2018-07-31T16:13:33.482Z,2.00
2018-07-31T16:16:04.307Z,1.63
2018-07-31T16:18:35.165Z,1.90
2018-07-31T16:21:06.337Z,1.50
2018-07-31T16:23:37.060Z,1.90
2018-07-31T16:26:07.797Z,2.03
2018-07-31T16:28:38.600Z,1.80
2018-07-31T16:31:09.106Z,7.27
2018-07-31T16:33:39.388Z,2.13
2018-07-31T16:36:11.706Z,1.40
2018-07-31T16:38:42.309Z,1.60
2018-07-31T16:41:12.993Z,1.73
2018-07-31T16:43:44.472Z,4.73
2018-07-31T16:46:15.101Z,5.90
2018-07-31T16:48:45.606Z,1.53
2018-07-31T16:51:16.331Z,2.10
2018-07-31T16:53:46.632Z,8.73
2018-07-31T16:56:17.081Z,2.20
2018-07-31T16:58:47.699Z,1.50
2018-07-31T17:01:18.235Z,1.77
2018-07-31T17:03:49.034Z,1.40
2018-07-31T17:06:19.625Z,1.73
2018-07-31T17:08:50.311Z,1.30
2018-07-31T17:11:20.841Z,1.63
2018-07-31T17:13:51.817Z,1.50
2018-07-31T17:16:22.568Z,2.50
2018-07-31T17:18:53.333Z,1.30
2018-07-31T17:21:23.946Z,1.50
2018-07-31T17:23:54.510Z,1.80
2018-07-31T17:26:25.260Z,2.13
2018-07-31T17:28:56.093Z,2.17
2018-07-31T17:31:26.595Z,1.60
2018-07-31T17:33:57.130Z,1.98
2018-07-31T17:36:27.758Z,1.63
2018-07-31T17:38:58.365Z,1.27
2018-07-31T17:41:29.142Z,1.30
2018-07-31T17:43:59.813Z,1.70
2018-07-31T17:46:30.704Z,1.57
2018-07-31T17:49:01.294Z,1.20
2018-07-31T17:51:32.096Z,1.73
2018-07-31T17:54:02.632Z,1.40
2018-07-31T17:56:33.256Z,1.80
2018-07-31T17:59:03.898Z,1.10
2018-07-31T18:01:34.670Z,1.30
2018-07-31T18:04:11.977Z,1.57
2018-07-31T18:06:42.702Z,1.80
2018-07-31T18:09:13.426Z,1.67
2018-07-31T18:11:43.954Z,1.27
2018-07-31T18:14:14.657Z,1.20
2018-07-31T18:16:45.379Z,1.60
2018-07-31T18:19:16.157Z,1.50
2018-07-31T18:21:46.696Z,1.10
2018-07-31T18:24:17.430Z,1.40
2018-07-31T18:26:47.991Z,1.30
2018-07-31T18:29:18.791Z,1.27
2018-07-31T18:31:49.279Z,1.50
2018-07-31T18:34:21.210Z,1.33
2018-07-31T18:36:51.900Z,1.20
2018-07-31T18:39:22.444Z,1.30
2018-07-31T18:41:52.971Z,1.50
2018-07-31T18:44:23.584Z,1.20
2018-07-31T18:46:54.340Z,1.60
2018-07-31T18:49:25.145Z,1.30
2018-07-31T18:51:55.911Z,1.70
2018-07-31T18:54:26.739Z,1.83
2018-07-31T18:56:57.772Z,1.47
2018-07-31T18:59:28.508Z,1.67
2018-07-31T19:01:59.334Z,1.60
2018-07-31T19:04:29.919Z,1.97
2018-07-31T19:07:00.707Z,1.67
2018-07-31T19:09:31.332Z,2.13
2018-07-31T19:12:01.763Z,1.70
2018-07-31T19:14:32.241Z,1.80
2018-07-31T19:17:02.874Z,1.60
2018-07-31T19:19:33.597Z,1.93
2018-07-31T19:22:04.234Z,1.30
2018-07-31T19:24:34.893Z,1.63
2018-07-31T19:27:05.244Z,1.87
2018-07-31T19:29:35.837Z,1.50
2018-07-31T19:32:09.896Z,1.67
2018-07-31T19:34:40.708Z,2.20
2018-07-31T19:37:11.381Z,1.90
2018-07-31T19:39:41.978Z,1.80
2018-07-31T19:42:12.781Z,1.80
2018-07-31T19:44:43.514Z,1.97
2018-07-31T19:47:14.522Z,2.00
2018-07-31T19:49:45.225Z,1.20
2018-07-31T19:52:15.872Z,1.23
2018-07-31T19:54:46.579Z,1.53
2018-07-31T19:57:17.224Z,1.47
2018-07-31T19:59:47.621Z,1.87
2018-07-31T20:02:18.174Z,1.73
2018-07-31T20:04:49.013Z,1.93
2018-07-31T20:07:19.710Z,1.70
2018-07-31T20:09:50.536Z,2.13
2018-07-31T20:12:21.445Z,1.63
2018-07-31T20:14:52.162Z,1.40
2018-07-31T20:17:22.888Z,1.60
2018-07-31T20:19:53.684Z,1.60
2018-07-31T20:22:24.501Z,1.30
2018-07-31T20:24:55.285Z,1.63
2018-07-31T20:27:26.151Z,1.70
2018-07-31T20:29:57.883Z,1.77
2018-07-31T20:32:29.091Z,1.20
2018-07-31T20:34:59.760Z,1.13
2018-07-31T20:37:30.972Z,1.63
2018-07-31T20:40:02.049Z,1.53
2018-07-31T20:42:32.788Z,1.13
2018-07-31T20:45:03.925Z,1.33
2018-07-31T20:47:34.834Z,1.53
2018-07-31T20:50:05.853Z,1.47
2018-07-31T20:52:37.025Z,1.70
2018-07-31T20:55:07.307Z,1.23
2018-07-31T20:57:37.798Z,1.70
2018-07-31T21:00:08.813Z,1.20
2018-07-31T21:02:39.526Z,1.63
2018-07-31T21:05:10.202Z,1.20
2018-07-31T21:07:40.982Z,1.27
2018-07-31T21:10:11.798Z,1.40
2018-07-31T21:12:42.380Z,1.17
2018-07-31T21:15:13.156Z,1.73
2018-07-31T21:17:43.961Z,1.53
2018-07-31T21:20:14.608Z,1.30
2018-07-31T21:22:44.860Z,1.70
2018-07-31T21:25:15.490Z,1.00
2018-07-31T21:27:46.316Z,1.30
2018-07-31T21:30:17.021Z,1.90
2018-07-31T21:32:47.705Z,1.40
2018-07-31T21:35:18.391Z,1.87
2018-07-31T21:37:49.315Z,1.30
2018-07-31T21:40:19.969Z,1.67
2018-07-31T21:42:51.078Z,1.10
2018-07-31T21:45:21.579Z,1.23
2018-07-31T21:47:52.264Z,1.07
2018-07-31T21:50:22.831Z,1.00
2018-07-31T21:52:53.608Z,1.10
2018-07-31T21:55:24.324Z,1.27
2018-07-31T21:57:54.884Z,1.10
2018-07-31T22:00:25.442Z,1.13
2018-07-31T22:02:55.768Z,1.37
2018-07-31T22:05:26.402Z,1.43
2018-07-31T22:07:56.964Z,1.27
2018-07-31T22:10:27.457Z,1.20
2018-07-31T22:12:57.710Z,1.20
2018-07-31T22:15:27.809Z,1.30
2018-07-31T22:17:58.365Z,1.13
2018-07-31T22:20:28.971Z,1.20
2018-07-31T22:23:00.584Z,0.97
2018-07-31T22:25:31.264Z,0.90
2018-07-31T22:28:02.051Z,1.23
2018-07-31T22:30:32.712Z,1.40
2018-07-31T22:33:02.964Z,1.00
2018-07-31T22:35:33.333Z,1.10
2018-07-31T22:38:03.944Z,1.17
2018-07-31T22:40:34.639Z,1.10
2018-07-31T22:43:05.265Z,1.00
2018-07-31T22:45:35.925Z,1.50
2018-07-31T22:48:06.918Z,1.50
2018-07-31T22:50:38.758Z,0.90
2018-07-31T22:53:09.406Z,1.37
2018-07-31T22:55:40.680Z,1.07
2018-07-31T22:58:12.322Z,1.00
2018-07-31T23:00:42.857Z,1.23
2018-07-31T23:03:13.365Z,1.20
2018-07-31T23:05:44.032Z,0.90
2018-07-31T23:08:14.463Z,1.10
2018-07-31T23:10:45.017Z,1.60
2018-07-31T23:13:15.715Z,1.20
2018-07-31T23:15:47.024Z,1.20
2018-07-31T23:18:17.748Z,1.87
2018-07-31T23:20:48.488Z,1.10
2018-07-31T23:23:19.526Z,1.30
2018-07-31T23:25:50.108Z,1.30
2018-07-31T23:28:20.859Z,1.17
2018-07-31T23:30:51.537Z,1.10
2018-07-31T23:33:21.868Z,0.90
2018-07-31T23:35:52.316Z,0.90
2018-07-31T23:38:22.855Z,1.50
2018-07-31T23:40:53.712Z,1.20
2018-07-31T23:43:24.596Z,1.07
2018-07-31T23:45:55.488Z,1.27
2018-07-31T23:48:26.197Z,1.67
2018-07-31T23:50:57.041Z,1.50
2018-07-31T23:53:27.785Z,1.30
2018-07-31T23:55:58.418Z,1.20
2018-07-31T23:58:28.998Z,1.17
